Time;durP1;ratioP1;P1;durP2;ratioP2;P2;SDS_P1;SDS_P2;PMS_P1;PMS_P2;Temp;Humidity;BMP_temperature;BMP_pressure;BME280_temperature;BME280_humidity;BME280_pressure;Samples;Min_cycle;Max_cycle;Signal;HPM_P1;HPM_P2
2022/12/30 00:02:26;;;;;;;0.93;0.90;;;9.10;99.90;;;;;;4991288;28;20677;-69
2022/12/30 00:04:53;;;;;;;1.43;0.90;;;9.10;99.90;;;;;;4991179;28;20206;-69
2022/12/30 00:07:20;;;;;;;3.87;1.13;;;9.10;99.90;;;;;;4991200;28;20237;-69
2022/12/30 00:09:47;;;;;;;1.57;0.83;;;9.10;99.90;;;;;;4990825;28;20245;-70
2022/12/30 00:34:20;;;;;;;2.30;1.07;;;9.10;99.90;;;;;;4980983;28;20688;-69
2022/12/30 00:36:50;;;;;;;1.93;1.10;;;9.20;99.90;;;;;;4990695;28;20804;-69
2022/12/30 00:39:17;;;;;;;1.50;0.90;;;9.10;99.90;;;;;;4990997;28;20372;-69
2022/12/30 00:44:28;;;;;;;3.63;1.33;;;9.10;99.90;;;;;;4982363;28;20684;-69
2022/12/30 00:46:56;;;;;;;2.37;1.00;;;9.10;99.90;;;;;;4986925;28;20638;-69
2022/12/30 00:57:38;;;;;;;3.40;1.20;;;9.20;99.90;;;;;;4990090;28;20269;-71
2022/12/30 01:00:07;;;;;;;3.20;1.10;;;9.20;99.90;;;;;;4990558;28;20285;-70
2022/12/30 01:02:34;;;;;;;2.40;0.90;;;9.20;99.90;;;;;;4989539;28;20234;-70
2022/12/30 01:05:02;;;;;;;1.93;1.03;;;9.10;99.90;;;;;;4990634;28;20293;-70
2022/12/30 01:07:29;;;;;;;1.40;0.93;;;9.10;99.90;;;;;;4989826;28;20329;-70
2022/12/30 01:09:56;;;;;;;1.47;0.73;;;9.00;99.90;;;;;;4990142;28;20719;-70
2022/12/30 01:12:23;;;;;;;3.53;1.30;;;9.00;99.90;;;;;;4989396;28;20238;-70
2022/12/30 01:14:52;;;;;;;4.77;1.13;;;8.90;99.90;;;;;;4987363;28;20314;-70
2022/12/30 01:17:22;;;;;;;3.30;0.77;;;8.90;99.90;;;;;;4970710;28;20301;-70
2022/12/30 01:19:48;;;;;;;3.50;1.33;;;8.90;99.90;;;;;;4989765;28;20216;-70
2022/12/30 01:22:17;;;;;;;3.37;1.20;;;8.80;99.90;;;;;;4989622;28;20230;-71
2022/12/30 01:24:44;;;;;;;3.00;1.30;;;8.80;99.90;;;;;;4989765;28;20202;-68
2022/12/30 01:27:11;;;;;;;2.20;1.17;;;8.80;99.90;;;;;;4989639;28;20238;-69
2022/12/30 01:29:41;;;;;;;4.83;1.07;;;8.80;99.90;;;;;;4991874;28;20298;-68
2022/12/30 01:32:11;;;;;;;2.57;1.30;;;8.70;99.90;;;;;;5009403;28;20633;-71
2022/12/30 01:34:38;;;;;;;3.27;1.00;;;8.70;99.90;;;;;;5008655;28;20677;-71
2022/12/30 01:37:05;;;;;;;5.73;1.37;;;8.70;99.90;;;;;;4972320;28;20203;-70
2022/12/30 01:39:34;;;;;;;3.03;1.17;;;8.70;99.90;;;;;;4989502;28;20297;-70
2022/12/30 01:42:01;;;;;;;3.00;1.30;;;8.70;99.90;;;;;;4989345;28;20320;-70
2022/12/30 01:44:56;;;;;;;4.10;0.93;;;8.70;99.90;;;;;;4989480;28;20214;-70
2022/12/30 01:47:29;;;;;;;4.53;1.10;;;8.70;99.90;;;;;;4989078;28;20245;-71
2022/12/30 01:50:01;;;;;;;3.00;1.77;;;8.60;99.90;;;;;;4989721;28;20196;-71
2022/12/30 01:52:28;;;;;;;2.50;1.53;;;8.60;99.90;;;;;;4989392;28;20249;-69
2022/12/30 01:55:03;;;;;;;4.60;1.07;;;8.60;99.90;;;;;;4989373;28;20309;-69
2022/12/30 01:57:32;;;;;;;1.90;0.90;;;8.60;99.90;;;;;;4988956;28;20296;-69
2022/12/30 02:00:00;;;;;;;4.33;1.50;;;8.50;99.90;;;;;;4989020;28;20216;-69
2022/12/30 02:02:28;;;;;;;2.93;1.00;;;8.50;99.90;;;;;;4988382;28;20328;-71
2022/12/30 02:04:56;;;;;;;5.77;1.33;;;8.50;99.90;;;;;;4989207;28;20300;-70
2022/12/30 02:07:28;;;;;;;3.33;1.27;;;8.50;99.90;;;;;;4989251;28;20309;-71
2022/12/30 02:09:57;;;;;;;3.67;1.00;;;8.50;99.90;;;;;;4989009;28;20201;-70
2022/12/30 02:12:24;;;;;;;3.00;1.20;;;8.40;99.90;;;;;;4985869;28;20329;-71
2022/12/30 02:14:52;;;;;;;2.93;1.30;;;8.40;99.90;;;;;;4988457;28;20301;-71
2022/12/30 02:17:28;;;;;;;4.50;1.17;;;8.40;99.90;;;;;;4988517;28;20757;-71
2022/12/30 02:20:33;;;;;;;5.73;1.50;;;8.40;99.90;;;;;;4989161;28;20284;-71
2022/12/30 02:23:23;;;;;;;4.60;1.40;;;8.30;99.90;;;;;;4985639;28;20349;-71
2022/12/30 02:26:25;;;;;;;3.27;1.30;;;8.30;99.90;;;;;;4988965;28;20301;-71
2022/12/30 02:29:33;;;;;;;2.60;1.17;;;8.30;99.90;;;;;;4949524;28;20774;-72
2022/12/30 02:32:10;;;;;;;4.67;1.20;;;8.30;99.90;;;;;;4966375;28;20305;-71
2022/12/30 02:34:47;;;;;;;1.73;1.10;;;8.20;99.90;;;;;;4969236;28;20281;-71
2022/12/30 02:37:22;;;;;;;2.43;1.30;;;8.30;99.90;;;;;;4979127;28;20556;-72
2022/12/30 02:39:54;;;;;;;3.40;1.30;;;8.30;99.90;;;;;;4988546;28;20312;-71
2022/12/30 02:45:20;;;;;;;2.57;1.30;;;8.30;99.90;;;;;;4986169;28;20213;-69
2022/12/30 02:47:53;;;;;;;3.30;1.30;;;8.30;99.90;;;;;;4968750;28;20294;-69
2022/12/30 02:53:11;;;;;;;3.87;1.13;;;8.30;99.90;;;;;;4976650;28;20344;-70
2022/12/30 02:55:38;;;;;;;5.73;1.83;;;8.30;99.90;;;;;;4987582;28;20285;-70
2022/12/30 02:58:05;;;;;;;2.60;1.27;;;8.30;99.90;;;;;;4987458;28;20202;-70
2022/12/30 03:03:58;;;;;;;3.60;1.40;;;8.30;99.90;;;;;;4987916;28;20225;-70
2022/12/30 03:06:55;;;;;;;2.70;1.33;;;8.20;99.90;;;;;;4988236;28;20580;-70
2022/12/30 03:09:34;;;;;;;2.90;1.13;;;8.30;99.90;;;;;;4968090;28;20242;-71
2022/12/30 03:12:09;;;;;;;2.77;1.13;;;8.20;99.90;;;;;;4978408;28;20225;-71
2022/12/30 03:14:43;;;;;;;9.37;1.73;;;8.10;99.90;;;;;;4987907;28;20190;-71
2022/12/30 03:17:15;;;;;;;5.27;1.43;;;8.10;99.90;;;;;;4986049;28;20686;-71
2022/12/30 03:19:45;;;;;;;3.37;1.37;;;8.10;99.90;;;;;;4988122;28;20194;-71
2022/12/30 03:27:03;;;;;;;1.63;1.13;;;8.10;99.90;;;;;;4988160;28;20240;-71
2022/12/30 03:27:50;;;;;;;2.57;1.20;;;8.00;99.90;;;;;;4987834;28;20252;-71
2022/12/30 03:30:18;;;;;;;2.13;1.00;;;7.90;99.90;;;;;;4988192;28;20297;-71
2022/12/30 03:32:46;;;;;;;5.10;1.30;;;7.90;99.90;;;;;;4987272;28;20651;-71
2022/12/30 03:35:15;;;;;;;4.73;1.30;;;7.90;99.90;;;;;;4990836;28;20320;-71
2022/12/30 03:37:46;;;;;;;2.13;1.70;;;7.80;99.90;;;;;;4991533;28;20739;-70
2022/12/30 03:40:16;;;;;;;5.60;1.40;;;7.70;99.90;;;;;;4991683;28;20628;-70
2022/12/30 03:42:45;;;;;;;5.97;1.63;;;7.80;99.90;;;;;;4991217;28;20234;-70
2022/12/30 03:45:13;;;;;;;2.83;1.30;;;7.80;99.90;;;;;;4989754;28;20289;-70
2022/12/30 03:47:40;;;;;;;5.23;2.17;;;7.80;99.90;;;;;;4971811;28;20234;-71
2022/12/30 03:50:08;;;;;;;4.70;1.40;;;7.80;99.90;;;;;;4985892;28;20285;-71
2022/12/30 03:52:36;;;;;;;4.43;1.53;;;7.80;99.90;;;;;;4991153;28;20199;-70
2022/12/30 03:55:04;;;;;;;4.63;1.40;;;7.80;99.90;;;;;;4990925;28;20206;-70
2022/12/30 03:57:32;;;;;;;3.17;1.40;;;7.80;99.90;;;;;;4991227;28;20293;-71
2022/12/30 03:59:59;;;;;;;5.53;1.50;;;7.80;99.90;;;;;;4990989;28;20297;-70
2022/12/30 04:02:26;;;;;;;3.87;1.50;;;7.80;99.90;;;;;;4990883;28;20242;-70
2022/12/30 04:04:53;;;;;;;4.77;1.30;;;7.80;99.90;;;;;;4995548;28;20342;-70
2022/12/30 04:07:21;;;;;;;4.67;1.50;;;7.80;99.90;;;;;;4991404;28;20222;-71
2022/12/30 04:09:49;;;;;;;4.03;1.47;;;7.70;99.90;;;;;;4991162;28;20694;-70
2022/12/30 04:12:16;;;;;;;5.93;1.60;;;7.70;99.90;;;;;;4990786;28;20329;-70
2022/12/30 04:14:43;;;;;;;3.63;1.60;;;7.70;99.90;;;;;;4990896;28;20393;-71
2022/12/30 04:17:09;;;;;;;7.43;1.60;;;7.70;99.90;;;;;;4990929;28;20302;-70
2022/12/30 04:19:36;;;;;;;3.47;1.43;;;7.70;99.90;;;;;;4978081;28;20202;-70
2022/12/30 04:22:03;;;;;;;2.47;1.20;;;7.70;99.90;;;;;;4971271;28;20213;-70
2022/12/30 04:24:30;;;;;;;4.70;1.70;;;7.60;99.90;;;;;;4971471;28;20672;-70
2022/12/30 04:26:58;;;;;;;3.10;1.23;;;7.60;99.90;;;;;;4985574;28;20289;-70
2022/12/30 04:29:25;;;;;;;4.60;1.40;;;7.60;99.90;;;;;;4990383;28;20296;-70
2022/12/30 04:31:52;;;;;;;4.10;1.57;;;7.60;99.90;;;;;;4990176;28;20298;-70
2022/12/30 04:34:19;;;;;;;5.13;1.50;;;7.60;99.90;;;;;;4990269;28;20652;-70
2022/12/30 04:36:46;;;;;;;4.27;1.73;;;7.60;99.90;;;;;;4991026;28;20293;-70
2022/12/30 04:39:13;;;;;;;4.80;1.63;;;7.60;99.90;;;;;;4990825;28;20218;-70
2022/12/30 04:41:40;;;;;;;3.63;1.70;;;7.60;99.90;;;;;;4990737;28;20296;-70
2022/12/30 04:44:08;;;;;;;4.17;1.70;;;7.70;99.90;;;;;;4990675;28;20233;-70
2022/12/30 04:46:35;;;;;;;2.60;1.67;;;7.70;99.90;;;;;;4989698;28;20296;-70
2022/12/30 04:49:02;;;;;;;2.37;1.30;;;7.60;99.90;;;;;;4990259;28;20766;-70
2022/12/30 04:51:28;;;;;;;3.30;1.37;;;7.70;99.90;;;;;;4989978;28;20948;-70
2022/12/30 04:53:55;;;;;;;1.93;1.07;;;7.60;99.90;;;;;;4990313;28;20570;-70
2022/12/30 04:56:22;;;;;;;7.20;1.50;;;7.60;99.90;;;;;;4989911;28;20634;-70
2022/12/30 04:58:49;;;;;;;3.80;1.63;;;7.70;99.90;;;;;;4990187;28;20297;-70
2022/12/30 05:01:17;;;;;;;6.33;1.23;;;7.60;99.90;;;;;;4974356;28;20234;-70
2022/12/30 05:03:44;;;;;;;5.43;1.77;;;7.60;99.90;;;;;;4970515;28;20738;-70
2022/12/30 05:06:11;;;;;;;4.97;1.57;;;7.60;99.90;;;;;;4971187;28;20761;-71
2022/12/30 05:08:38;;;;;;;5.57;1.33;;;7.50;99.90;;;;;;4974761;28;20297;-71
2022/12/30 05:11:05;;;;;;;5.17;1.40;;;7.50;99.90;;;;;;4989863;28;20796;-70
2022/12/30 05:13:32;;;;;;;4.60;1.53;;;7.50;99.90;;;;;;4989670;28;20297;-70
2022/12/30 05:15:59;;;;;;;4.83;2.00;;;7.50;99.90;;;;;;4985003;28;20313;-70
2022/12/30 05:18:28;;;;;;;3.53;1.50;;;7.50;99.90;;;;;;4990086;28;20210;-70
2022/12/30 05:20:55;;;;;;;2.87;1.20;;;7.40;99.90;;;;;;4990138;28;20238;-70
2022/12/30 05:26:14;;;;;;;3.20;1.60;;;7.40;99.90;;;;;;4989546;28;20612;-70
2022/12/30 05:28:41;;;;;;;6.30;1.43;;;7.40;99.90;;;;;;4989505;28;20792;-71
2022/12/30 05:31:08;;;;;;;3.40;1.47;;;7.40;99.90;;;;;;4989631;28;20213;-71
2022/12/30 05:33:36;;;;;;;5.77;1.23;;;7.40;99.90;;;;;;4989116;28;20301;-70
2022/12/30 05:36:03;;;;;;;4.23;1.60;;;7.30;99.90;;;;;;4989955;28;20297;-70
2022/12/30 05:38:30;;;;;;;3.30;1.50;;;7.30;99.90;;;;;;4989509;28;20296;-70
2022/12/30 05:40:58;;;;;;;3.63;1.70;;;7.30;99.90;;;;;;4989440;28;20244;-70
2022/12/30 05:43:25;;;;;;;4.63;1.23;;;7.30;99.90;;;;;;4979970;28;20230;-70
2022/12/30 05:45:52;;;;;;;3.63;0.93;;;7.30;99.90;;;;;;4988955;28;20313;-70
2022/12/30 05:48:19;;;;;;;3.53;1.30;;;7.30;99.90;;;;;;4989097;28;20297;-70
2022/12/30 05:50:50;;;;;;;5.27;1.53;;;7.30;99.90;;;;;;4989214;28;20681;-70
2022/12/30 05:53:17;;;;;;;4.10;1.30;;;7.30;99.90;;;;;;4989195;28;20289;-70
2022/12/30 05:55:45;;;;;;;1.97;1.47;;;7.30;99.90;;;;;;4986546;28;20317;-69
2022/12/30 05:58:12;;;;;;;3.13;1.17;;;7.20;99.90;;;;;;4989512;28;20214;-69
2022/12/30 06:00:39;;;;;;;2.47;1.30;;;7.30;99.90;;;;;;4989138;28;20337;-69
2022/12/30 06:03:06;;;;;;;4.23;1.50;;;7.30;99.90;;;;;;4988407;28;20673;-69
2022/12/30 06:05:33;;;;;;;2.97;1.40;;;7.20;99.90;;;;;;4988995;28;20206;-69
2022/12/30 06:08:01;;;;;;;3.03;1.17;;;7.10;99.90;;;;;;4988758;28;20301;-69
2022/12/30 06:10:28;;;;;;;5.93;1.63;;;7.10;99.90;;;;;;4988375;28;20216;-70
2022/12/30 06:12:55;;;;;;;6.13;1.57;;;7.00;99.90;;;;;;4989059;28;20293;-69
2022/12/30 06:15:22;;;;;;;4.13;2.00;;;7.00;99.90;;;;;;4988824;28;20301;-69
2022/12/30 06:17:49;;;;;;;4.93;1.30;;;7.00;99.90;;;;;;4988796;28;20229;-69
2022/12/30 06:20:16;;;;;;;5.67;2.03;;;6.90;99.90;;;;;;4988802;28;20212;-69
2022/12/30 06:22:42;;;;;;;6.77;1.67;;;6.80;99.90;;;;;;4988557;28;20270;-69
2022/12/30 06:25:11;;;;;;;2.93;1.30;;;6.80;99.90;;;;;;4988796;28;20281;-69
2022/12/30 06:27:38;;;;;;;4.67;1.30;;;6.80;99.90;;;;;;4988603;28;20583;-70
2022/12/30 06:30:06;;;;;;;2.67;1.40;;;6.80;99.90;;;;;;4988609;28;20293;-70
2022/12/30 06:32:33;;;;;;;5.43;1.40;;;6.80;99.90;;;;;;4987994;28;20212;-71
2022/12/30 06:35:00;;;;;;;4.60;1.70;;;6.80;99.90;;;;;;4988442;28;20218;-70
2022/12/30 06:37:27;;;;;;;4.33;2.00;;;6.80;99.90;;;;;;4988628;28;20617;-71
2022/12/30 06:39:54;;;;;;;4.03;1.50;;;6.70;99.90;;;;;;4988716;28;20297;-70
2022/12/30 06:42:22;;;;;;;4.60;1.80;;;6.70;99.90;;;;;;4988698;28;20217;-70
2022/12/30 06:44:49;;;;;;;1.97;1.50;;;6.70;99.90;;;;;;4988253;28;20577;-70
2022/12/30 06:47:16;;;;;;;5.03;1.90;;;6.70;99.90;;;;;;4988115;28;20698;-70
2022/12/30 06:49:43;;;;;;;3.77;1.80;;;6.70;99.90;;;;;;4988176;28;20214;-70
2022/12/30 06:52:10;;;;;;;4.53;1.90;;;6.70;99.90;;;;;;4985396;28;20211;-70
2022/12/30 06:54:37;;;;;;;4.83;1.83;;;6.70;99.90;;;;;;4988055;28;20301;-70
2022/12/30 06:57:04;;;;;;;4.10;1.47;;;6.60;99.90;;;;;;4988427;28;20307;-71
2022/12/30 06:59:32;;;;;;;2.63;1.40;;;6.60;99.90;;;;;;4987951;28;20296;-71
2022/12/30 07:01:59;;;;;;;4.87;1.90;;;6.60;99.90;;;;;;4988029;28;20668;-70
2022/12/30 07:04:26;;;;;;;2.00;1.43;;;6.50;99.90;;;;;;4987949;28;20792;-70
2022/12/30 07:06:53;;;;;;;5.17;2.00;;;6.40;99.90;;;;;;5000202;28;20297;-69
2022/12/30 07:09:20;;;;;;;5.70;1.93;;;6.40;99.90;;;;;;4987659;28;20579;-69
2022/12/30 07:11:46;;;;;;;4.37;1.60;;;6.40;99.90;;;;;;4987885;28;20313;-70
2022/12/30 07:14:13;;;;;;;8.03;1.60;;;6.40;99.90;;;;;;4988144;28;20210;-70
2022/12/30 07:16:42;;;;;;;2.67;1.57;;;6.40;99.90;;;;;;4988108;28;20306;-70
2022/12/30 07:19:09;;;;;;;3.43;1.40;;;6.40;99.90;;;;;;4987882;28;20206;-70
2022/12/30 07:21:36;;;;;;;3.43;1.47;;;6.40;99.90;;;;;;4987842;28;20636;-71
2022/12/30 07:24:03;;;;;;;3.57;1.60;;;6.50;99.90;;;;;;4987828;28;20615;-71
2022/12/30 07:26:29;;;;;;;4.90;1.80;;;6.50;99.90;;;;;;4987835;28;20282;-71
2022/12/30 07:28:56;;;;;;;4.70;1.60;;;6.50;99.90;;;;;;4987786;28;20292;-70
2022/12/30 07:31:23;;;;;;;4.33;1.37;;;6.50;99.90;;;;;;4988172;28;20213;-71
2022/12/30 07:33:52;;;;;;;3.37;1.57;;;6.50;99.90;;;;;;4987543;28;20202;-70
2022/12/30 07:36:19;;;;;;;6.30;1.70;;;6.50;99.90;;;;;;4987961;28;20221;-70
2022/12/30 07:38:46;;;;;;;5.40;1.70;;;6.50;99.90;;;;;;4986540;28;20301;-70
2022/12/30 07:41:13;;;;;;;2.30;1.17;;;6.50;99.90;;;;;;4985890;28;20238;-70
2022/12/30 07:43:39;;;;;;;5.57;1.80;;;6.50;99.90;;;;;;4985704;28;20312;-70
2022/12/30 07:46:07;;;;;;;2.37;1.10;;;6.50;99.90;;;;;;4986267;28;20301;-70
2022/12/30 07:48:34;;;;;;;2.90;1.20;;;6.60;99.90;;;;;;4985362;28;20722;-70
2022/12/30 07:51:08;;;;;;;3.40;1.50;;;6.60;99.90;;;;;;4986202;28;20210;-70
2022/12/30 07:53:35;;;;;;;5.17;1.57;;;6.60;99.90;;;;;;4985564;28;20293;-69
2022/12/30 07:56:04;;;;;;;6.23;1.70;;;6.60;99.90;;;;;;4985851;28;20203;-70
2022/12/30 07:58:31;;;;;;;4.10;1.60;;;6.60;99.90;;;;;;4985503;28;20336;-70
2022/12/30 08:00:58;;;;;;;3.93;1.80;;;6.70;99.90;;;;;;4985368;28;20316;-70
2022/12/30 08:03:25;;;;;;;5.60;1.80;;;6.60;99.90;;;;;;4984616;28;20357;-70
2022/12/30 08:05:52;;;;;;;5.17;1.77;;;6.60;99.90;;;;;;4984872;28;20795;-70
2022/12/30 08:08:20;;;;;;;7.27;2.07;;;6.60;99.90;;;;;;4985164;28;20202;-69
2022/12/30 08:10:55;;;;;;;3.43;1.80;;;6.70;99.90;;;;;;4985166;28;20768;-68
2022/12/30 08:13:22;;;;;;;6.17;2.50;;;6.70;99.90;;;;;;4985239;28;20209;-68
2022/12/30 08:15:49;;;;;;;3.67;1.70;;;6.80;99.90;;;;;;4979929;28;20305;-67
2022/12/30 08:18:16;;;;;;;2.53;1.20;;;6.90;99.90;;;;;;4985340;28;20221;-70
2022/12/30 08:20:43;;;;;;;6.97;1.60;;;6.90;99.90;;;;;;4985767;28;20289;-70
2022/12/30 08:23:10;;;;;;;5.90;1.67;;;7.00;99.90;;;;;;4988680;28;20221;-69
2022/12/30 08:25:39;;;;;;;4.87;1.50;;;7.00;99.90;;;;;;4988487;28;20203;-69
2022/12/30 08:28:06;;;;;;;4.50;1.30;;;7.00;99.90;;;;;;4988523;28;20692;-69
2022/12/30 08:30:33;;;;;;;2.57;1.50;;;7.00;99.90;;;;;;4988417;28;20218;-69
2022/12/30 08:33:00;;;;;;;3.20;1.57;;;7.10;99.90;;;;;;4988128;28;20209;-69
2022/12/30 08:35:27;;;;;;;2.43;1.47;;;7.10;99.90;;;;;;4988595;28;20206;-70
2022/12/30 08:37:54;;;;;;;14.77;2.53;;;7.20;99.90;;;;;;4988917;28;20224;-69
2022/12/30 08:40:21;;;;;;;3.77;1.40;;;7.30;99.90;;;;;;4988540;28;20210;-69
2022/12/30 08:42:49;;;;;;;3.50;1.60;;;7.30;99.90;;;;;;4988508;28;20309;-70
2022/12/30 08:45:16;;;;;;;4.87;1.43;;;7.30;99.90;;;;;;4988059;28;20839;-71
2022/12/30 08:47:43;;;;;;;3.00;1.30;;;7.30;99.90;;;;;;4987083;28;20205;-69
2022/12/30 08:50:10;;;;;;;6.60;1.67;;;7.40;99.90;;;;;;4988150;28;20754;-69
2022/12/30 08:52:38;;;;;;;3.40;1.47;;;7.50;99.90;;;;;;4988160;28;20293;-69
2022/12/30 08:55:05;;;;;;;5.57;1.30;;;7.50;99.90;;;;;;4988038;28;20217;-71
2022/12/30 08:57:32;;;;;;;4.47;1.50;;;7.60;99.90;;;;;;4987839;28;20289;-70
2022/12/30 09:00:00;;;;;;;3.30;1.57;;;7.70;99.90;;;;;;4987440;28;20226;-69
2022/12/30 09:02:27;;;;;;;4.63;1.43;;;7.80;99.90;;;;;;4988447;28;20206;-71
2022/12/30 09:04:54;;;;;;;4.10;1.60;;;7.80;99.90;;;;;;4988021;28;20350;-71
2022/12/30 09:07:21;;;;;;;4.43;1.60;;;7.90;99.90;;;;;;4988396;28;20253;-71
2022/12/30 09:09:48;;;;;;;6.33;1.57;;;8.00;99.90;;;;;;4988222;28;20253;-71
2022/12/30 09:12:15;;;;;;;5.67;2.10;;;8.00;99.90;;;;;;4988099;28;20832;-72
2022/12/30 09:14:42;;;;;;;7.57;1.97;;;8.10;99.90;;;;;;4984180;28;20598;-70
2022/12/30 09:17:11;;;;;;;2.27;1.53;;;8.10;99.90;;;;;;4989244;28;20292;-71
2022/12/30 09:19:37;;;;;;;4.63;1.53;;;8.20;99.90;;;;;;4988965;28;20276;-71
2022/12/30 09:22:04;;;;;;;3.67;1.70;;;8.20;99.90;;;;;;4989155;28;20240;-70
2022/12/30 09:24:31;;;;;;;2.47;1.20;;;8.30;99.90;;;;;;4988973;28;20708;-70
2022/12/30 09:26:58;;;;;;;7.57;1.60;;;8.30;99.90;;;;;;4989708;28;20209;-72
2022/12/30 09:29:25;;;;;;;5.30;1.43;;;8.40;99.90;;;;;;4989291;28;20627;-73
2022/12/30 09:31:52;;;;;;;5.73;1.73;;;8.50;99.90;;;;;;4989139;28;20305;-72
2022/12/30 09:34:20;;;;;;;3.63;1.53;;;8.50;99.90;;;;;;4989078;28;20310;-75
2022/12/30 09:36:47;;;;;;;3.23;1.80;;;8.60;99.90;;;;;;4988680;28;20657;-70
2022/12/30 09:39:15;;;;;;;6.00;2.07;;;8.60;99.90;;;;;;4984341;28;20206;-69
2022/12/30 09:44:55;;;;;;;3.37;1.43;;;8.60;99.90;;;;;;4987930;28;20594;-70
2022/12/30 09:47:25;;;;;;;5.87;1.60;;;8.70;99.90;;;;;;4984003;28;20285;-69
2022/12/30 09:49:58;;;;;;;3.87;1.57;;;8.70;99.90;;;;;;4985499;28;20206;-69
2022/12/30 09:52:30;;;;;;;2.87;1.63;;;8.70;99.90;;;;;;4978103;28;20289;-70
2022/12/30 09:55:01;;;;;;;3.87;1.63;;;8.80;99.90;;;;;;4979264;28;20199;-70
2022/12/30 09:57:32;;;;;;;6.93;1.40;;;8.80;99.90;;;;;;4983020;28;20649;-69
2022/12/30 10:00:04;;;;;;;2.60;1.53;;;8.80;99.90;;;;;;4979639;28;20256;-70
2022/12/30 10:02:43;;;;;;;5.67;1.63;;;8.80;99.90;;;;;;4972081;28;20572;-69
2022/12/30 10:05:13;;;;;;;4.67;1.80;;;8.90;99.90;;;;;;4988297;28;20316;-70
2022/12/30 10:07:47;;;;;;;5.30;1.40;;;8.90;99.90;;;;;;4980668;28;20212;-70
2022/12/30 10:10:18;;;;;;;3.80;1.30;;;9.00;99.90;;;;;;4988334;28;20293;-70
2022/12/30 10:12:52;;;;;;;4.83;1.63;;;9.00;99.90;;;;;;4987628;28;20232;-69
2022/12/30 10:15:32;;;;;;;5.23;1.70;;;9.00;99.90;;;;;;4977152;28;20255;-70
2022/12/30 10:18:29;;;;;;;4.00;1.70;;;9.10;99.90;;;;;;4987828;28;20198;-70
2022/12/30 10:21:07;;;;;;;3.73;1.40;;;9.20;99.90;;;;;;4987564;28;20241;-71
2022/12/30 10:23:58;;;;;;;6.20;1.60;;;9.30;99.90;;;;;;4987298;28;20202;-71
2022/12/30 10:26:28;;;;;;;4.33;1.80;;;9.30;99.90;;;;;;4987395;28;20222;-71
2022/12/30 10:29:00;;;;;;;3.37;1.30;;;9.40;99.90;;;;;;4976518;28;20290;-70
2022/12/30 10:31:32;;;;;;;3.73;1.27;;;9.40;99.90;;;;;;4968402;28;20249;-70
2022/12/30 10:34:09;;;;;;;3.60;1.70;;;9.50;99.90;;;;;;4977234;28;20198;-70
2022/12/30 10:36:43;;;;;;;4.27;2.40;;;9.60;99.90;;;;;;4979024;28;20309;-71
2022/12/30 10:39:16;;;;;;;4.17;2.10;;;9.60;99.90;;;;;;4988505;28;20309;-70
2022/12/30 10:42:01;;;;;;;2.93;1.20;;;9.70;99.90;;;;;;4988497;28;20574;-71
2022/12/30 10:44:34;;;;;;;4.83;1.77;;;9.80;99.90;;;;;;4987447;28;20241;-71
2022/12/30 10:47:19;;;;;;;5.37;1.67;;;9.90;99.90;;;;;;4988326;28;20289;-71
2022/12/30 10:50:01;;;;;;;2.13;1.60;;;9.90;99.90;;;;;;4988282;28;20282;-71
2022/12/30 10:52:32;;;;;;;3.60;1.30;;;9.90;99.90;;;;;;4988289;28;20738;-71
2022/12/30 10:54:59;;;;;;;4.60;1.60;;;9.80;99.90;;;;;;4987998;28;20194;-70
2022/12/30 10:57:32;;;;;;;6.90;2.27;;;9.70;99.90;;;;;;4987552;28;20735;-70
2022/12/30 11:00:00;;;;;;;5.00;1.70;;;9.80;99.90;;;;;;4987953;28;20262;-70
2022/12/30 11:02:33;;;;;;;5.40;1.47;;;9.70;99.90;;;;;;4988588;28;20293;-71
2022/12/30 11:05:01;;;;;;;3.90;1.40;;;9.70;99.90;;;;;;4987435;28;20221;-70
2022/12/30 11:07:29;;;;;;;4.00;1.60;;;9.80;99.90;;;;;;4986725;28;20213;-70
2022/12/30 11:09:56;;;;;;;3.97;1.80;;;9.90;99.90;;;;;;4980224;28;20294;-70
2022/12/30 11:15:18;;;;;;;3.53;1.30;;;10.00;99.90;;;;;;4987232;28;20202;-69
2022/12/30 11:17:47;;;;;;;4.37;1.77;;;10.10;99.90;;;;;;4987627;28;20293;-69
2022/12/30 11:20:28;;;;;;;6.87;1.60;;;10.10;99.90;;;;;;4987734;28;20249;-69
2022/12/30 11:22:58;;;;;;;6.93;1.73;;;10.10;99.90;;;;;;4988045;28;20344;-69
2022/12/30 11:25:28;;;;;;;5.43;1.97;;;10.10;99.90;;;;;;4987469;28;20325;-69
2022/12/30 11:27:57;;;;;;;5.43;1.70;;;10.10;99.90;;;;;;4987494;28;20209;-70
2022/12/30 11:30:27;;;;;;;4.00;1.50;;;10.10;99.90;;;;;;4987496;28;20202;-69
2022/12/30 11:32:55;;;;;;;5.63;1.47;;;10.10;99.90;;;;;;4986547;28;20289;-69
2022/12/30 11:35:36;;;;;;;6.97;2.00;;;10.10;99.90;;;;;;4986130;28;20313;-69
2022/12/30 11:38:07;;;;;;;3.00;1.40;;;10.10;99.90;;;;;;4987935;28;20283;-68
2022/12/30 11:40:36;;;;;;;3.33;1.67;;;10.10;99.90;;;;;;4987901;28;20241;-69
2022/12/30 11:43:15;;;;;;;6.77;2.03;;;10.10;99.90;;;;;;4987681;28;20299;-70
2022/12/30 11:45:55;;;;;;;7.63;1.90;;;10.00;99.90;;;;;;4987204;28;20791;-70
2022/12/30 11:48:32;;;;;;;5.30;1.60;;;10.10;99.90;;;;;;5001701;28;20432;-70
2022/12/30 11:51:00;;;;;;;5.57;1.63;;;10.10;99.90;;;;;;5007159;28;20289;-70
2022/12/30 11:53:32;;;;;;;5.03;1.57;;;10.30;99.90;;;;;;5005117;28;20652;-70
2022/12/30 11:55:59;;;;;;;4.77;1.87;;;10.20;99.90;;;;;;4989593;28;20206;-70
2022/12/30 11:58:27;;;;;;;5.80;3.10;;;10.30;99.90;;;;;;4991349;28;20202;-69
2022/12/30 12:01:05;;;;;;;4.33;2.67;;;10.20;99.90;;;;;;4990957;28;20257;-70
2022/12/30 12:03:32;;;;;;;4.97;1.60;;;10.20;99.90;;;;;;4985629;28;20204;-69
2022/12/30 12:06:08;;;;;;;5.00;1.60;;;10.20;99.90;;;;;;4989903;28;20245;-69
2022/12/30 12:08:43;;;;;;;4.17;1.60;;;10.20;99.90;;;;;;4990917;28;20281;-69
2022/12/30 12:11:15;;;;;;;4.10;1.60;;;10.30;99.90;;;;;;4990738;28;20331;-69
2022/12/30 12:13:52;;;;;;;5.90;1.50;;;10.20;99.90;;;;;;4990980;28;20724;-69
2022/12/30 12:16:34;;;;;;;6.90;1.60;;;10.10;99.90;;;;;;4990959;28;20210;-69
2022/12/30 12:19:12;;;;;;;4.53;1.80;;;10.10;99.90;;;;;;4990855;28;20716;-69
2022/12/30 12:21:41;;;;;;;3.53;1.60;;;10.00;99.90;;;;;;4991272;28;20228;-70
2022/12/30 12:24:17;;;;;;;2.63;1.30;;;9.90;99.90;;;;;;4990643;28;20202;-69
2022/12/30 12:26:51;;;;;;;7.90;1.80;;;9.90;99.90;;;;;;4990924;28;20202;-70
2022/12/30 12:29:18;;;;;;;3.20;1.97;;;9.90;99.90;;;;;;4990736;28;20198;-70
2022/12/30 12:32:02;;;;;;;4.17;1.43;;;9.90;99.90;;;;;;4990347;28;20309;-69
2022/12/30 12:34:45;;;;;;;6.33;1.80;;;9.90;99.90;;;;;;4990338;28;20233;-71
2022/12/30 12:37:31;;;;;;;5.33;1.10;;;10.00;99.90;;;;;;4990638;28;20665;-70
2022/12/30 12:40:22;;;;;;;2.83;1.30;;;10.10;99.90;;;;;;4990157;28;20297;-70
2022/12/30 12:42:55;;;;;;;5.97;2.00;;;10.10;99.90;;;;;;4990710;28;20205;-70
2022/12/30 12:45:37;;;;;;;6.23;1.60;;;10.20;99.90;;;;;;4987975;28;20220;-71
2022/12/30 12:48:19;;;;;;;6.63;1.20;;;10.10;99.90;;;;;;4989004;28;20230;-70
2022/12/30 12:51:02;;;;;;;3.77;1.67;;;10.10;99.90;;;;;;4982561;28;20249;-70
2022/12/30 12:53:53;;;;;;;4.30;1.47;;;10.10;99.90;;;;;;4986100;28;20208;-71
2022/12/30 12:56:43;;;;;;;4.13;1.57;;;10.20;99.90;;;;;;4983568;28;20290;-71
2022/12/30 12:59:24;;;;;;;3.90;1.50;;;10.30;99.90;;;;;;4983615;28;20206;-70
2022/12/30 13:02:00;;;;;;;5.03;1.80;;;10.40;99.90;;;;;;4989012;28;20236;-70
2022/12/30 13:04:38;;;;;;;3.17;1.60;;;10.50;99.90;;;;;;4988071;28;20675;-69
2022/12/30 13:07:14;;;;;;;3.30;1.60;;;10.50;99.90;;;;;;4987512;28;20711;-69
2022/12/30 13:10:04;;;;;;;2.83;1.40;;;10.60;99.90;;;;;;4987572;28;20202;-70
2022/12/30 13:12:37;;;;;;;3.73;1.67;;;10.60;99.90;;;;;;4986718;28;20241;-70
2022/12/30 13:15:22;;;;;;;4.50;1.53;;;10.50;99.90;;;;;;4983634;28;20971;-70
2022/12/30 13:17:52;;;;;;;5.17;1.80;;;10.40;99.90;;;;;;4979105;28;20250;-70
2022/12/30 13:20:22;;;;;;;3.93;2.03;;;10.30;99.90;;;;;;4978215;28;20595;-70
2022/12/30 13:22:50;;;;;;;3.90;1.53;;;10.10;99.90;;;;;;4981212;28;20214;-71
2022/12/30 13:25:21;;;;;;;4.03;1.60;;;10.20;99.90;;;;;;4982284;28;20233;-70
2022/12/30 13:27:54;;;;;;;5.00;1.80;;;10.10;99.90;;;;;;4979956;28;20242;-71
2022/12/30 13:30:22;;;;;;;6.23;1.40;;;10.10;99.90;;;;;;4979701;28;20203;-71
2022/12/30 13:33:03;;;;;;;4.73;1.47;;;10.00;99.90;;;;;;4979557;28;20198;-71
2022/12/30 13:35:47;;;;;;;3.23;1.70;;;10.00;99.90;;;;;;4978652;28;20277;-69
2022/12/30 13:38:26;;;;;;;3.50;1.77;;;10.00;99.90;;;;;;4984048;28;20282;-69
2022/12/30 13:41:07;;;;;;;8.17;2.20;;;10.00;99.90;;;;;;4981061;28;20210;-69
2022/12/30 13:43:40;;;;;;;3.13;1.50;;;10.00;99.90;;;;;;4979007;28;21024;-69
2022/12/30 13:46:16;;;;;;;5.10;1.40;;;10.00;99.90;;;;;;4979857;28;20250;-69
2022/12/30 13:48:50;;;;;;;3.13;1.70;;;10.00;99.90;;;;;;4981329;28;20760;-69
2022/12/30 13:51:21;;;;;;;4.17;1.77;;;9.90;99.90;;;;;;4974894;28;20199;-69
2022/12/30 13:53:53;;;;;;;4.20;1.70;;;9.90;99.90;;;;;;4981012;28;20665;-69
2022/12/30 13:56:22;;;;;;;6.90;1.83;;;9.80;99.90;;;;;;4983964;28;20191;-69
2022/12/30 13:58:53;;;;;;;3.17;1.40;;;9.80;99.90;;;;;;4977414;28;20234;-69
2022/12/30 14:01:29;;;;;;;5.90;2.07;;;9.80;99.90;;;;;;4989459;28;20590;-71
2022/12/30 14:04:28;;;;;;;3.87;1.70;;;9.80;99.90;;;;;;4988736;28;20208;-70
2022/12/30 14:06:55;;;;;;;4.80;1.70;;;9.80;99.90;;;;;;4988055;28;20305;-70
2022/12/30 14:09:23;;;;;;;4.23;1.43;;;9.70;99.90;;;;;;4988470;28;20301;-70